Aérodrome :
LOGIN :

S'inscrire | Disclaimer

   EN    FR    IT 

 










Légende :    VFR   VFR Marginal   IFR   IFR Intensif   IFR Très Intensif
Visi : 
Plafond : 
>= 8 km
>= 3000ft
5 à 8 km
1000 à 3000 ft
1500m à 5 km
500 à 1000 ft
800 à 1500m
200 à 500 ft
< 800m
< 200 ft
Symboles :   Orages  Brouillard  Fortes neiges  Fortes précipitations  Vent > 20 kt
SIGMETs :   Divers  Orages  Givrage  Turbulence  Onde Orograph.  Cendres Volcan.






- Altitude de l'aérodrome : 172 ft
- Code IATA : LPI


ESSL - Saab

DERNIER METAR :
  • 221650Z 26022KT CAVOK 06/M01 Q0985

METARs EXPIRÉS :
  • 221620Z 26019G31KT 220V290 9999 SCT042 06/00 Q0984
  • 221550Z AUTO 26017G35KT 220V280 9999 BKN039/// BKN051/// OVC120/// 06/01 Q0983
  • 221520Z AUTO 26014G25KT 220V310 9999 -RA BKN031/// OVC061/// 06/02 Q0983
  • 221450Z AUTO 25018G31KT 220V290 9999 -RA BKN027/// BKN040/// OVC061/// 06/03 Q0983
  • 221420Z AUTO 26017G29KT 9999 BKN026/// OVC170/// 07/03 Q0983

TAF TAF ESSL
Valide du 22 à 15h jusqu'au 22 à 19h UTC


221430Z 2215/2219 25020G33KT 9999 BKN025
PROB40 2215/2218 SHRA BKN025CB



MET'MAP, la Météo Aéronautique d'un coup d'oeil ! - Copyright ORBIFLY Décembre 2007 - Disclaimer

ORBIFLY MET'MAP TEAM :

Programmation & Développement : Alexandra Zaïnal
Sur une idée originale de : Baudouin d'Aumeries
Assistance à la programmation : Marc-Olivier Méhu
Soutien technique & logistique : Manuel Goepfert

Contact : metmap@orbifly.com




SOURCES & CREDITS :

   NOAA